Milo, Kentucky
Current Conditions -  °F | °C
As of 9:35 AM on Tuesday 21 Oct 2014 (Local Time) from KSJS Reporting Station
Overcast Overcast  
Wind Chill: 51°   Ceiling: 800
Heat Index: 51°   Visibility: 10mi
Dew Point: 50°   Wind: 6mph
Humidity: 94%   Direction: 290°WNW
Pressure: 29.97"   Gusts: NA
Location:  37.8776°N, 82.5976°W
Report Text: KSJS 211335Z AUTO 29005KT 10SM OVC008 11/10 A2997 RMK AO2 T01080098
Loading
Personal Weather Stations






























Interactive Weather Map
Tropical Storm Tracking
New forecast layout! Learn more

10-Day Weather Forecast

Advertisements
Track Severe Weather on mobile